Depauw, Indiana
Current Conditions -  °F | °C
As of 10:56 PM on Tuesday 27 Jan 2015 (Local Time) from KSDF Reporting Station
Clear Clear  
Wind Chill: 27°   Ceiling: Unl
Heat Index: 27°   Visibility: 10mi
Dew Point: 13°   Wind: 3mph
Humidity: 56%   Direction: 30°NNE
Pressure: 30.25"   Gusts: NA
Location:  38.33°N, 86.22°W
Report Text: KSDF 280356Z 03003KT 10SM CLR M03/M11 A3025 RMK AO2 SLP249 T10281106
Loading
Personal Weather Stations






























Interactive Weather Map New forecast layout! Learn more

10-Day Weather Forecast

Advertisements
Track Severe Weather on mobile